首页
METAR-TAF:

METAR-TAF

机场 :

拉勒米, 怀俄明州, 美国

纬度: 41-18-43N, 经度: 105-40-30W, 海拔: 2218米

当前天气观测

该预报发布于11分钟前的02:53 UTC
风速3节,风向北转西北
温度 -16°C
湿度 65%
气压 1027 hPa
能見度: 16.1公里
天空无云

METAR: KLAR 260253Z AUTO 34003KT 10SM CLR M16/M21 A3033 RMK AO2 SLP364 T11561206 51002

时间: 20:04 (03:04 UTC)

预报

该预报发布于3小时和44分钟前的23:20 UTC
预报有效从26日的 00点(UTC)到 26日的 24点(UTC)
风速12节,风向
能見度: 10公里
少量云层高于2500英尺
阴天层高于5000英尺
从 26日的 0400点(UTC)
风速8节,风向西北
能見度: 10公里
多云层高于8000英尺
从 26日的 1200点(UTC)
风速13节,风向西转西南
能見度: 10公里
多云层高于20000英尺
从 26日的 1900点(UTC)
风速15节,风向西,有时为25节阵风
能見度: 10公里
阴天层高于10000英尺

TAF: KLAR 252320Z 2600/2624 35012KT P6SM FEW025 OVC050 FM260400 32008KT P6SM BKN080 FM261200 24013KT P6SM BKN200 FM261900 27015G25KT P6SM OVC100

超过4000个机场的气象观测和天气预报(METAR&TAF报告)。

可查询的气象台以黄色和红色小点在地图上表示。

将鼠标移到小点上方,可查看气象台名称。

然后点击查看天气观测和预报。

如需切换地图:点击带黑十字的绿色按钮放大地图;点击带横线的绿色按钮缩小地图;或者点击绿色箭头查看邻近地区的地图。


METAR-TAF: